Airfield :
LOGIN :

Register | Disclaimer

   EN    FR    IT 

 










Legend :    VFR   Marginal VFR   IFR   Intensive IFR   Very Intensive IFR
Visi :
Ceiling :
>= 8 km
>= 3000ft
5 to 8 km
1000 to 3000 ft
1500m to 5 km
500 to 1000 ft
800 to 1500m
200 to 500 ft
< 800m
< 200 ft
Symbols :   Thunderstorms  Fog  Heavy snow  Heavy precipitations  Wind > 20 kt
SIGMETs :     Misc.  Thunderstorms  Icing  Turbulence  Mountain Waves  Volcanic Ashes






- Airport Elevation : 1197 ft
- IATA code : SPM


ETAD - Spangdahlem Ab

CURRENT METAR :
  • 270810Z 18006KT 3600 -RASN BKN008 OVC012 02/00 A2960 RMK AO2A RASNB10 BKN V OVC SLP029 $

EXPIRED METARs :
  • 270756Z 18009KT 9999 -RASN OVC007 01/00 A2961 RMK AO2A SLP034 T00140001 $
  • 270741Z 18010KT 9999 OVC007 01/00 A2962 RMK AO2A SLP038 $
  • 270656Z 18012KT 9999 OVC006 01/00 A2964 RMK AO2A RASNB31E40 SLP045 P0000 T00110004
  • 270640Z 19010KT 9999 OVC006 01/00 A2965 RMK AO2A UPB31E40 SLP048 $
  • 270637Z 19010KT 9999 -RASN OVC007 01/00 A2965 RMK CIG 006 RWY05 SLP048 $
  • 270556Z AUTO 19007KT 9999 OVC007 01/00 A2967 RMK AO2 SLPNO T00120003 10012 20006 57019
  • 270526Z AUTO 19006KT 9999 BKN007 OVC012 01/00 A2968 RMK AO2 CIG 007V010 SLPNO $

TAF AMD TAF ETAD
Valid from the 27 at 07:00 until the 28 at 11:00 UTC


270750Z 2707/2811 20012G18KT 4000 -SHSN OVC007 640079 QNH2948INS
BECMG 2710/2711 18012G18KT 2400 -SN BKN005 OVC007 640059 QNH2926INS
TEMPO 2711/2715 0800 SN BKN003
BECMG 2714/2715 22006KT 4000 -SN BKN003 640039 QNH2926INS
BECMG 2718/2719 30020G35KT 9999 NSW BKN010 520009 QNH2956INS
BECMG 2723/2724 27012G18KT 9999 SCT015 QNH2982INS
BECMG 2802/2803 25008KT 9999 BKN005 QNH2991INS TX02/2707Z TNM02/2805Z



MET'MAP, your aeronautical weather chart ! - Copyright ORBIFLY December 2007 - Disclaimer

ORBIFLY MET'MAP TEAM :

Programming & Development : Alexandra Zaïnal
Concept & original design : Baudouin d'Aumeries
Assistance for programming : Marc-Olivier Méhu
Technical & hardware support : Manuel Goepfert

Contact : metmap@orbifly.com




SOURCES & CREDITS :

   NOAA